createdAt,value
2023-05-12T00:01:57.471Z,18.06
2023-05-12T00:04:26.250Z,18.04
2023-05-12T00:06:54.966Z,18.03
2023-05-12T00:09:23.439Z,18.02
2023-05-12T00:11:52.702Z,18.05
2023-05-12T00:14:21.130Z,18.04
2023-05-12T00:16:52.252Z,18.04
2023-05-12T00:19:21.187Z,18.04
2023-05-12T00:21:49.797Z,18.01
2023-05-12T00:24:18.188Z,18.03
2023-05-12T00:26:46.894Z,18.03
2023-05-12T00:29:15.404Z,18.04
2023-05-12T00:31:44.107Z,18.04
2023-05-12T00:34:12.520Z,18.02
2023-05-12T00:36:41.232Z,18.03
2023-05-12T00:39:10.396Z,18.02
2023-05-12T00:41:39.103Z,18.01
2023-05-12T00:44:07.575Z,18.02
2023-05-12T00:46:37.208Z,17.97
2023-05-12T00:49:05.554Z,18.01
2023-05-12T00:51:34.313Z,18.03
2023-05-12T00:54:02.884Z,18.01
2023-05-12T00:56:31.583Z,18.02
2023-05-12T00:58:59.981Z,18.02
2023-05-12T01:01:30.660Z,18.01
2023-05-12T01:03:59.307Z,17.97
2023-05-12T01:07:05.926Z,17.99
2023-05-12T01:09:34.685Z,18.00
2023-05-12T01:12:04.414Z,18.00
2023-05-12T01:14:34.530Z,17.99
2023-05-12T01:17:06.252Z,17.99
2023-05-12T01:19:42.182Z,18.00
2023-05-12T01:22:13.117Z,18.01
2023-05-12T01:24:57.610Z,17.99
2023-05-12T01:27:28.618Z,18.00
2023-05-12T01:30:00.890Z,17.99
2023-05-12T01:32:31.101Z,17.99
2023-05-12T01:35:00.435Z,18.00
2023-05-12T01:37:31.156Z,18.00
2023-05-12T01:40:00.461Z,17.95
2023-05-12T01:42:29.254Z,17.99
2023-05-12T01:44:57.715Z,17.99
2023-05-12T01:47:27.722Z,17.96
2023-05-12T01:50:13.818Z,17.95
2023-05-12T01:52:44.777Z,17.95
2023-05-12T01:55:16.455Z,17.96
2023-05-12T01:57:51.759Z,17.95
2023-05-12T02:00:21.914Z,17.93
2023-05-12T02:02:53.527Z,17.96
2023-05-12T02:05:22.426Z,17.92
2023-05-12T02:07:52.398Z,17.95
2023-05-12T02:10:21.184Z,17.95
2023-05-12T02:12:50.230Z,17.94
2023-05-12T02:15:19.089Z,17.93
2023-05-12T02:17:50.493Z,17.92
2023-05-12T02:20:20.160Z,17.95
2023-05-12T02:22:49.014Z,17.91
2023-05-12T02:25:17.472Z,17.92
2023-05-12T02:27:46.901Z,17.93
2023-05-12T02:30:15.989Z,17.94
2023-05-12T02:32:44.842Z,17.96
2023-05-12T02:35:14.270Z,17.92
2023-05-12T02:37:44.209Z,17.91
2023-05-12T02:40:13.083Z,17.91
2023-05-12T02:42:43.853Z,17.92
2023-05-12T02:45:12.816Z,17.90
2023-05-12T02:47:41.709Z,17.92
2023-05-12T02:50:11.352Z,17.92
2023-05-12T02:52:40.267Z,17.91
2023-05-12T02:55:09.573Z,17.92
2023-05-12T02:57:38.326Z,17.86
2023-05-12T03:00:07.694Z,17.90
2023-05-12T03:02:39.961Z,17.89
2023-05-12T03:05:11.866Z,17.81
2023-05-12T03:07:40.621Z,17.90
2023-05-12T03:10:10.905Z,17.89
2023-05-12T03:12:39.797Z,17.89
2023-05-12T03:15:09.217Z,17.89
2023-05-12T03:17:38.120Z,17.89
2023-05-12T03:20:07.675Z,17.88
2023-05-12T03:22:38.338Z,17.86
2023-05-12T03:25:08.682Z,17.87
2023-05-12T03:27:37.898Z,17.89
2023-05-12T03:30:07.233Z,17.87
2023-05-12T03:32:41.696Z,17.89
2023-05-12T03:35:12.011Z,17.88
2023-05-12T03:37:41.148Z,17.90
2023-05-12T03:40:11.404Z,17.86
2023-05-12T03:42:40.057Z,17.87
2023-05-12T03:45:11.431Z,17.88
2023-05-12T03:47:40.990Z,17.87
2023-05-12T03:50:10.857Z,17.86
2023-05-12T03:52:41.709Z,17.85
2023-05-12T03:55:10.718Z,17.81
2023-05-12T03:57:39.423Z,17.85
2023-05-12T04:00:08.595Z,17.86
2023-05-12T04:02:46.694Z,17.86
2023-05-12T04:05:16.421Z,17.85
2023-05-12T08:09:00.959Z,17.91
2023-05-12T08:11:29.616Z,17.89
2023-05-12T08:13:58.017Z,17.92
2023-05-12T08:16:26.868Z,17.91
2023-05-12T08:18:55.309Z,17.92
2023-05-12T08:21:24.216Z,17.92
2023-05-12T08:23:52.506Z,17.83
2023-05-12T08:26:21.614Z,17.87
2023-05-12T08:28:49.957Z,17.95
2023-05-12T08:31:18.790Z,17.94
2023-05-12T08:33:51.738Z,17.91
2023-05-12T08:36:22.830Z,17.93
2023-05-12T08:38:51.184Z,17.92
2023-05-12T08:41:23.751Z,17.98
2023-05-12T08:43:52.802Z,17.98
2023-05-12T08:46:21.794Z,17.94
2023-05-12T08:48:51.354Z,17.95
2023-05-12T08:51:20.063Z,17.91
2023-05-12T08:53:48.515Z,17.98
2023-05-12T08:58:51.872Z,17.89
2023-05-12T09:01:21.238Z,18.00
2023-05-12T09:03:51.421Z,18.01
2023-05-12T09:06:20.605Z,18.00
2023-05-12T09:08:49.024Z,18.01
2023-05-12T09:11:17.998Z,18.02
2023-05-12T09:14:09.264Z,17.96
2023-05-12T09:16:44.571Z,18.03
2023-05-12T09:19:12.993Z,18.00
2023-05-12T09:21:42.136Z,17.99
2023-05-12T09:24:10.455Z,18.01
2023-05-12T09:27:05.785Z,18.07
2023-05-12T09:29:37.520Z,18.07
2023-05-12T09:32:11.147Z,18.07
2023-05-12T09:34:41.686Z,18.09
2023-05-12T09:37:10.554Z,18.09
2023-05-12T09:39:38.936Z,18.09
2023-05-12T09:42:13.074Z,18.07
2023-05-12T09:44:42.232Z,18.03
2023-05-12T09:47:11.231Z,18.04
2023-05-12T09:49:42.286Z,18.07
2023-05-12T09:52:10.960Z,18.07
2023-05-12T09:54:39.476Z,18.09
2023-05-12T09:57:08.986Z,18.10
2023-05-12T09:59:39.680Z,18.13
2023-05-12T10:02:09.903Z,18.12
2023-05-12T10:04:53.700Z,18.18
2023-05-12T10:07:24.267Z,18.13
2023-05-12T10:09:53.045Z,18.20
2023-05-12T10:12:21.724Z,18.20
2023-05-12T10:14:50.494Z,18.19
2023-05-12T10:17:20.854Z,18.17
2023-05-12T10:19:49.378Z,18.15
2023-05-12T10:22:18.052Z,18.22
2023-05-12T10:24:46.512Z,18.24
2023-05-12T10:27:16.118Z,18.21
2023-05-12T10:29:44.624Z,18.25
2023-05-12T10:32:13.334Z,18.30
2023-05-12T10:34:42.269Z,18.31
2023-05-12T10:37:11.611Z,18.30
2023-05-12T10:39:51.692Z,18.24
2023-05-12T10:42:26.275Z,18.23
2023-05-12T10:44:56.699Z,18.20
2023-05-12T10:47:29.594Z,18.18
2023-05-12T10:50:01.202Z,18.13
2023-05-12T10:52:30.002Z,18.11
2023-05-12T10:55:03.502Z,18.14
2023-05-12T10:57:33.514Z,18.10
2023-05-12T11:00:03.870Z,18.09
2023-05-12T11:02:36.152Z,18.09
2023-05-12T11:05:13.038Z,18.08
2023-05-12T11:07:50.083Z,18.10
2023-05-12T11:10:19.594Z,18.04
2023-05-12T11:12:48.854Z,18.07
2023-05-12T11:15:18.081Z,18.07
2023-05-12T11:17:49.336Z,18.06
2023-05-12T11:20:29.471Z,18.07
2023-05-12T11:22:59.806Z,18.00
2023-05-12T11:25:28.565Z,18.07
2023-05-12T11:27:57.657Z,18.12
2023-05-12T11:30:26.130Z,18.11
2023-05-12T11:33:02.839Z,18.11
2023-05-12T11:35:32.838Z,18.15
2023-05-12T11:38:03.308Z,18.20
2023-05-12T11:40:31.757Z,18.18
2023-05-12T11:43:01.820Z,18.20
2023-05-12T11:45:30.831Z,18.11
2023-05-12T11:48:11.916Z,18.24
2023-05-12T11:50:43.053Z,18.24
2023-05-12T11:53:15.212Z,18.24
2023-05-12T11:55:56.991Z,18.31
2023-05-12T11:58:29.506Z,18.32
2023-05-12T12:01:08.387Z,18.30
2023-05-12T12:03:49.117Z,18.28
2023-05-12T12:06:18.029Z,18.31
2023-05-12T12:09:02.531Z,18.37
2023-05-12T12:11:31.542Z,18.37
2023-05-12T12:14:01.032Z,18.37
2023-05-12T12:16:31.679Z,18.39
2023-05-12T12:19:00.427Z,18.40
2023-05-12T12:21:28.784Z,18.40
2023-05-12T12:23:57.799Z,18.40
2023-05-12T12:26:26.209Z,18.38
2023-05-12T12:28:55.030Z,18.41
2023-05-12T12:31:23.285Z,18.42
2023-05-12T12:33:51.886Z,18.41
2023-05-12T12:36:20.230Z,18.41
2023-05-12T12:38:49.031Z,18.41
2023-05-12T12:41:17.226Z,18.42
2023-05-12T12:43:45.820Z,18.43
2023-05-12T12:46:14.190Z,18.40
2023-05-12T12:48:43.263Z,18.42
2023-05-12T12:51:11.886Z,18.47
2023-05-12T12:53:43.540Z,18.47
2023-05-12T12:56:12.295Z,18.45
2023-05-12T12:58:41.530Z,18.47
2023-05-12T13:01:09.776Z,18.47
2023-05-12T13:03:38.655Z,18.45
2023-05-12T13:06:07.195Z,18.46
2023-05-12T13:08:35.914Z,18.46
2023-05-12T13:11:04.222Z,18.48
2023-05-12T13:13:32.853Z,18.47
2023-05-12T13:16:01.134Z,18.45
2023-05-12T13:18:29.828Z,18.44
2023-05-12T13:20:58.543Z,18.46
2023-05-12T13:23:27.106Z,18.49
2023-05-12T13:25:55.393Z,18.49
2023-05-12T13:28:24.135Z,18.48
2023-05-12T13:30:52.998Z,18.47
2023-05-12T13:33:21.965Z,18.46
2023-05-12T13:35:50.267Z,18.45
2023-05-12T13:38:20.030Z,18.45
2023-05-12T13:40:48.351Z,18.45
2023-05-12T13:43:16.942Z,18.53
2023-05-12T13:45:45.407Z,18.54
2023-05-12T13:48:14.165Z,18.59
2023-05-12T13:50:42.670Z,18.54
2023-05-12T13:53:12.904Z,18.59
2023-05-12T13:55:41.592Z,18.63
2023-05-12T13:58:10.206Z,18.59
2023-05-12T14:00:38.610Z,18.61
2023-05-12T14:03:08.142Z,18.65
2023-05-12T14:05:36.517Z,18.55
2023-05-12T14:08:05.403Z,18.62
2023-05-12T14:10:35.552Z,18.62
2023-05-12T14:13:04.592Z,18.65
2023-05-12T14:15:47.179Z,18.64
2023-05-12T14:18:17.649Z,18.56
2023-05-12T14:20:46.399Z,18.59
2023-05-12T14:23:15.157Z,18.65
2023-05-12T14:25:43.524Z,18.61
2023-05-12T14:28:12.541Z,18.59
2023-05-12T14:30:41.028Z,18.64
2023-05-12T14:33:09.712Z,18.64
2023-05-12T14:35:38.237Z,18.61
2023-05-12T14:38:06.828Z,18.65
2023-05-12T14:40:35.182Z,18.59
2023-05-12T14:43:03.754Z,18.60
2023-05-12T14:45:32.309Z,18.61
2023-05-12T14:48:01.152Z,18.61
2023-05-12T14:50:29.726Z,18.60
2023-05-12T14:52:58.683Z,18.60
2023-05-12T14:55:28.563Z,18.57
2023-05-12T14:57:57.465Z,18.55
2023-05-12T15:00:26.113Z,18.60
2023-05-12T15:02:54.768Z,18.58
2023-05-12T15:05:32.454Z,18.54
2023-05-12T15:08:10.766Z,18.57
2023-05-12T15:10:39.077Z,18.59
2023-05-12T15:13:08.114Z,18.60
2023-05-12T15:15:39.492Z,18.62
2023-05-12T15:18:08.487Z,18.62
2023-05-12T15:20:37.787Z,18.62
2023-05-12T15:23:06.481Z,18.63
2023-05-12T15:25:34.917Z,18.61
2023-05-12T15:28:03.744Z,18.64
2023-05-12T15:30:32.151Z,18.62
2023-05-12T15:33:04.371Z,18.63
2023-05-12T15:35:33.282Z,18.60
2023-05-12T15:38:02.038Z,18.61
2023-05-12T15:40:31.311Z,18.65
2023-05-12T15:43:00.109Z,18.59
2023-05-12T15:45:28.510Z,18.66
2023-05-12T15:47:58.276Z,18.66
2023-05-12T15:50:26.664Z,18.64
2023-05-12T15:52:57.411Z,18.63
2023-05-12T15:55:25.787Z,18.67
2023-05-12T15:57:54.445Z,18.66
2023-05-12T16:00:22.976Z,18.69
2023-05-12T16:02:51.629Z,18.69
2023-05-12T16:05:20.485Z,18.66
2023-05-12T16:07:49.322Z,18.69
2023-05-12T16:10:17.731Z,18.69
2023-05-12T16:12:46.450Z,18.66
2023-05-12T16:15:14.854Z,18.69
2023-05-12T16:17:43.617Z,18.70
2023-05-12T16:20:12.889Z,18.75
2023-05-12T16:22:41.502Z,18.71
2023-05-12T16:25:09.921Z,18.78
2023-05-12T16:27:39.019Z,18.83
2023-05-12T16:30:08.658Z,18.83
2023-05-12T16:32:37.287Z,18.81
2023-05-12T16:35:07.012Z,18.81
2023-05-12T16:37:35.602Z,18.78
2023-05-12T16:40:04.471Z,18.82
2023-05-12T16:42:33.324Z,18.80
2023-05-12T16:45:01.733Z,18.85
2023-05-12T16:47:30.521Z,18.85
2023-05-12T16:50:00.037Z,18.88
2023-05-12T16:52:28.926Z,18.86
2023-05-12T16:55:00.381Z,18.87
2023-05-12T16:57:29.060Z,18.83
2023-05-12T16:59:57.442Z,18.85
2023-05-12T17:02:26.035Z,18.85
2023-05-12T17:04:54.397Z,18.81
2023-05-12T17:07:23.522Z,18.79
2023-05-12T17:09:51.962Z,18.82
2023-05-12T17:12:20.927Z,18.81
2023-05-12T17:14:59.436Z,18.78
2023-05-12T17:17:35.893Z,18.78
2023-05-12T17:20:06.310Z,18.70
2023-05-12T17:22:37.394Z,18.67
2023-05-12T17:25:06.290Z,18.63
2023-05-12T17:27:34.920Z,18.62
2023-05-12T17:30:04.692Z,18.62
2023-05-12T17:32:33.414Z,18.54
2023-05-12T17:35:01.685Z,18.54
2023-05-12T17:37:30.715Z,18.45
2023-05-12T17:39:59.664Z,18.41
2023-05-12T17:42:31.494Z,18.33
2023-05-12T17:45:00.021Z,18.20
2023-05-12T17:47:28.758Z,18.20
2023-05-12T17:49:57.156Z,18.16
2023-05-12T17:52:26.141Z,18.06
2023-05-12T17:54:57.469Z,18.06
2023-05-12T17:57:26.133Z,18.04
2023-05-12T17:59:54.403Z,18.01
2023-05-12T18:02:23.169Z,18.04
2023-05-12T18:04:51.567Z,18.04
2023-05-12T18:07:20.418Z,18.01
2023-05-12T18:09:48.710Z,17.90
2023-05-12T18:12:18.624Z,17.92
2023-05-12T18:14:47.410Z,17.90
2023-05-12T18:17:16.993Z,17.85
2023-05-12T18:19:45.547Z,17.89
2023-05-12T18:22:16.287Z,17.92
2023-05-12T18:24:44.906Z,17.85
2023-05-12T18:27:13.871Z,17.87
2023-05-12T18:29:42.572Z,17.86
2023-05-12T18:32:11.708Z,17.87
2023-05-12T18:34:41.937Z,17.77
2023-05-12T18:37:15.789Z,17.76
2023-05-12T18:39:44.507Z,17.70
2023-05-12T18:42:13.733Z,17.69
2023-05-12T18:44:42.511Z,17.64
2023-05-12T18:47:11.695Z,17.72
2023-05-12T18:49:40.194Z,17.73
2023-05-12T18:52:09.094Z,17.84
2023-05-12T18:54:38.216Z,18.01
2023-05-12T18:57:07.232Z,18.09
2023-05-12T18:59:35.773Z,18.19
2023-05-12T19:02:04.838Z,18.27
2023-05-12T19:04:33.659Z,18.31
2023-05-12T19:07:02.804Z,18.31
2023-05-12T19:09:31.563Z,18.36
2023-05-12T19:12:00.432Z,18.41
2023-05-12T19:14:28.732Z,18.45
2023-05-12T19:16:58.874Z,18.44
2023-05-12T19:19:27.150Z,18.43
2023-05-12T19:21:55.895Z,18.38
2023-05-12T19:24:26.003Z,18.38
2023-05-12T19:26:54.868Z,18.35
2023-05-12T19:29:23.457Z,18.35
2023-05-12T19:31:53.306Z,18.37
2023-05-12T19:34:21.847Z,18.34
2023-05-12T19:36:53.142Z,18.38
2023-05-12T19:39:21.573Z,18.37
2023-05-12T19:41:51.712Z,18.37
2023-05-12T19:44:20.069Z,18.38
2023-05-12T19:46:48.887Z,18.35
2023-05-12T19:49:17.333Z,18.37
2023-05-12T19:51:46.092Z,18.37
2023-05-12T19:54:14.458Z,18.38
2023-05-12T19:56:43.151Z,18.37
2023-05-12T19:59:11.514Z,18.38
2023-05-12T20:01:41.254Z,18.38
2023-05-12T20:04:09.689Z,18.39
2023-05-12T20:06:38.364Z,18.33
2023-05-12T20:09:07.314Z,18.36
2023-05-12T20:11:36.117Z,18.39
2023-05-12T20:14:04.477Z,18.40
2023-05-12T20:16:33.373Z,18.39
2023-05-12T20:19:02.991Z,18.39
2023-05-12T20:21:32.295Z,18.38
2023-05-12T20:24:00.769Z,18.41
2023-05-12T20:26:30.770Z,18.41
2023-05-12T20:29:00.479Z,18.41
2023-05-12T20:31:29.329Z,18.38
2023-05-12T20:33:58.045Z,18.41
2023-05-12T20:36:26.788Z,18.42
2023-05-12T20:38:55.123Z,18.41
2023-05-12T20:41:23.926Z,18.44
2023-05-12T20:43:52.309Z,18.43
2023-05-12T20:46:21.207Z,18.44
2023-05-12T20:48:49.549Z,18.51
2023-05-12T20:51:18.167Z,18.52
2023-05-12T20:53:46.507Z,18.50
2023-05-12T20:56:15.357Z,18.47
2023-05-12T20:58:43.882Z,18.45
2023-05-12T21:01:12.699Z,18.43
2023-05-12T21:03:42.339Z,18.39
2023-05-12T21:06:12.437Z,18.36
2023-05-12T21:08:41.348Z,18.35
2023-05-12T21:11:17.719Z,18.31
2023-05-12T21:13:47.772Z,18.32
2023-05-12T21:16:17.063Z,18.31
2023-05-12T21:18:45.863Z,18.30
2023-05-12T21:21:14.767Z,18.26
2023-05-12T21:23:43.396Z,18.29
2023-05-12T21:26:12.774Z,18.30
2023-05-12T21:28:41.392Z,18.28
2023-05-12T21:31:10.194Z,18.28
2023-05-12T21:33:38.845Z,18.27
2023-05-12T21:36:08.090Z,18.27
2023-05-12T21:38:36.627Z,18.26
2023-05-12T21:41:05.945Z,18.27
2023-05-12T21:43:34.613Z,18.27
2023-05-12T21:46:04.832Z,18.26
2023-05-12T21:48:34.767Z,18.24
2023-05-12T21:51:04.141Z,18.25
2023-05-12T21:53:32.501Z,18.21
2023-05-12T21:56:01.181Z,18.22
2023-05-12T21:58:30.404Z,18.24
2023-05-12T22:01:00.140Z,18.23
2023-05-12T22:03:28.596Z,18.24
2023-05-12T22:05:57.389Z,18.20
2023-05-12T22:08:25.989Z,18.21
2023-05-12T22:10:54.659Z,18.21
2023-05-12T22:13:23.002Z,18.24
2023-05-12T22:15:51.724Z,18.24
2023-05-12T22:18:21.357Z,18.21
2023-05-12T22:20:50.354Z,18.19
2023-05-12T22:23:18.759Z,18.20
2023-05-12T22:25:47.744Z,18.19
2023-05-12T22:28:17.021Z,18.19
2023-05-12T22:30:45.681Z,18.16
2023-05-12T22:33:14.036Z,18.20
2023-05-12T22:35:43.086Z,18.20
2023-05-12T22:38:11.423Z,18.20
2023-05-12T22:40:40.103Z,18.20
2023-05-12T22:43:09.721Z,18.20
2023-05-12T22:45:38.338Z,18.18
2023-05-12T22:48:06.675Z,18.20
2023-05-12T22:50:35.378Z,18.20
2023-05-12T22:53:03.625Z,18.20
2023-05-12T22:55:32.344Z,18.19
2023-05-12T22:58:00.720Z,18.19
2023-05-12T23:00:29.319Z,18.20
2023-05-12T23:02:57.750Z,18.21
2023-05-12T23:05:26.505Z,18.21
2023-05-12T23:07:54.918Z,18.20
2023-05-12T23:10:24.118Z,18.20
2023-05-12T23:12:52.596Z,18.21
2023-05-12T23:15:21.486Z,18.19
2023-05-12T23:17:49.895Z,18.19
2023-05-12T23:20:19.201Z,18.19
2023-05-12T23:22:47.742Z,18.20
2023-05-12T23:25:16.598Z,18.20
2023-05-12T23:27:44.984Z,18.20
2023-05-12T23:30:13.968Z,18.19
2023-05-12T23:32:42.683Z,18.19
2023-05-12T23:35:11.550Z,18.19
2023-05-12T23:37:39.888Z,18.18
2023-05-12T23:40:09.462Z,18.19
2023-05-12T23:42:37.849Z,18.18
2023-05-12T23:45:07.739Z,18.17
2023-05-12T23:47:36.401Z,18.16
2023-05-12T23:50:05.920Z,18.17
2023-05-12T23:52:34.198Z,18.15
2023-05-12T23:55:02.861Z,18.13
2023-05-12T23:57:31.221Z,18.12
2023-05-12T23:59:59.948Z,18.14
